Time;durP1;ratioP1;P1;durP2;ratioP2;P2;SDS_P1;SDS_P2;PMS_P1;PMS_P2;Temp;Humidity;BMP_temperature;BMP_pressure;BME280_temperature;BME280_humidity;BME280_pressure;Samples;Min_cycle;Max_cycle;Signal;HPM_P1;HPM_P2
2022/06/28 00:00:30;;;;;;;17.30;4.28;;;24.50;83.20;;;;;;5090531;28;20028;-76
2022/06/28 00:02:56;;;;;;;23.05;3.70;;;24.50;83.40;;;;;;5089242;28;20112;-76
2022/06/28 00:05:21;;;;;;;17.08;4.20;;;24.50;83.30;;;;;;5092002;28;20106;-76
2022/06/28 00:07:47;;;;;;;19.23;3.75;;;24.50;83.50;;;;;;5092344;28;20375;-76
2022/06/28 00:10:14;;;;;;;13.88;3.92;;;24.50;83.50;;;;;;5089044;28;20907;-77
2022/06/28 00:12:40;;;;;;;20.85;3.65;;;24.50;83.60;;;;;;5090025;28;20028;-75
2022/06/28 00:17:53;;;;;;;15.90;3.83;;;24.20;84.30;;;;;;5091699;28;20039;-76
2022/06/28 00:20:19;;;;;;;15.27;3.92;;;24.20;84.90;;;;;;5092467;28;20114;-76
2022/06/28 00:22:44;;;;;;;19.98;3.33;;;24.20;84.70;;;;;;5093416;28;20076;-76
2022/06/28 00:25:10;;;;;;;27.95;4.80;;;24.30;84.70;;;;;;5088955;28;20039;-75
2022/06/28 00:27:37;;;;;;;18.08;4.03;;;24.10;84.90;;;;;;5085719;28;20032;-76
2022/06/28 00:30:04;;;;;;;8.85;3.53;;;24.10;85.10;;;;;;5082649;28;20515;-77
2022/06/28 00:32:30;;;;;;;16.02;4.25;;;24.30;84.80;;;;;;5091602;28;20024;-76
2022/06/28 00:34:55;;;;;;;17.00;3.85;;;24.20;85.00;;;;;;5090005;28;20063;-76
2022/06/28 00:37:21;;;;;;;17.13;4.85;;;24.20;85.20;;;;;;5091094;28;20066;-76
2022/06/28 00:39:47;;;;;;;23.42;3.53;;;24.10;85.40;;;;;;5090369;28;20393;-76
2022/06/28 00:42:13;;;;;;;16.30;3.92;;;24.00;85.60;;;;;;5088107;28;20482;-76
2022/06/28 00:44:39;;;;;;;18.83;4.10;;;23.90;85.80;;;;;;5088851;28;20390;-76
2022/06/28 00:47:07;;;;;;;19.80;4.88;;;23.80;85.70;;;;;;5092586;28;20028;-75
2022/06/28 00:49:33;;;;;;;13.38;3.55;;;23.70;85.80;;;;;;5089990;28;20028;-76
2022/06/28 00:52:02;;;;;;;23.42;5.22;;;23.70;85.80;;;;;;5089006;28;20031;-77
2022/06/28 00:54:29;;;;;;;13.05;3.05;;;23.60;86.40;;;;;;5084765;28;20299;-76
2022/06/28 00:56:55;;;;;;;20.98;3.67;;;23.50;86.50;;;;;;5090190;28;20024;-76
2022/06/28 00:59:21;;;;;;;13.60;3.25;;;23.30;87.10;;;;;;5089216;28;20028;-76
2022/06/28 01:01:47;;;;;;;11.48;3.38;;;23.30;87.20;;;;;;5089749;28;20032;-76
2022/06/28 01:04:13;;;;;;;23.15;4.43;;;23.40;87.70;;;;;;5090347;28;20363;-76
2022/06/28 01:06:39;;;;;;;16.70;5.30;;;23.40;86.90;;;;;;5088774;28;20039;-76
2022/06/28 01:09:05;;;;;;;15.65;3.13;;;23.50;86.90;;;;;;5092668;28;20036;-76
2022/06/28 01:11:32;;;;;;;17.48;3.83;;;23.60;86.80;;;;;;5090305;28;20032;-76
2022/06/28 01:14:01;;;;;;;11.38;3.85;;;23.60;86.70;;;;;;5089773;28;20393;-77
2022/06/28 01:16:27;;;;;;;22.23;5.40;;;23.60;86.60;;;;;;5089368;28;20813;-76
2022/06/28 01:18:53;;;;;;;24.60;4.47;;;23.60;86.60;;;;;;5090437;28;20028;-77
2022/06/28 01:21:23;;;;;;;25.33;5.38;;;23.70;86.70;;;;;;5091779;28;20564;-76
2022/06/28 01:23:49;;;;;;;13.73;4.13;;;23.70;86.80;;;;;;5091773;28;20409;-75
2022/06/28 01:26:21;;;;;;;14.80;3.53;;;23.80;86.60;;;;;;5087547;28;20035;-76
2022/06/28 01:28:50;;;;;;;17.35;3.63;;;24.00;85.90;;;;;;5091908;28;20035;-75
2022/06/28 01:31:21;;;;;;;22.05;4.50;;;24.20;85.60;;;;;;5088067;28;20070;-75
2022/06/28 01:33:49;;;;;;;14.02;3.88;;;24.20;85.90;;;;;;5087625;28;20028;-76
2022/06/28 01:36:15;;;;;;;15.25;4.18;;;24.40;85.40;;;;;;5088522;28;20028;-76
2022/06/28 01:38:42;;;;;;;13.90;3.03;;;24.40;86.20;;;;;;5090378;28;20474;-76
2022/06/28 01:41:32;;;;;;;10.38;2.88;;;24.50;85.90;;;;;;5086452;28;20036;-76
2022/06/28 01:43:55;;;;;;;19.52;4.55;;;24.30;85.90;;;;;;5090501;28;20398;-78
2022/06/28 01:46:20;;;;;;;13.70;3.15;;;24.30;85.90;;;;;;5088582;28;20032;-76
2022/06/28 01:48:46;;;;;;;14.30;3.25;;;24.20;85.90;;;;;;5089296;28;21733;-76
2022/06/28 01:51:12;;;;;;;19.33;4.45;;;24.30;85.80;;;;;;5084668;28;20520;-75
2022/06/28 01:53:37;;;;;;;16.52;4.03;;;24.20;85.90;;;;;;5090199;28;20386;-76
2022/06/28 01:56:03;;;;;;;14.23;3.65;;;24.20;86.10;;;;;;5087283;28;20055;-76
2022/06/28 01:58:29;;;;;;;23.50;4.07;;;24.10;86.50;;;;;;5090632;28;20039;-76
2022/06/28 02:00:55;;;;;;;16.30;3.47;;;23.90;86.70;;;;;;5089615;28;20481;-76
2022/06/28 02:03:20;;;;;;;17.55;4.75;;;24.00;87.70;;;;;;5088950;28;20032;-76
2022/06/28 02:05:46;;;;;;;19.60;4.35;;;23.80;87.00;;;;;;5090327;28;20039;-76
2022/06/28 02:08:12;;;;;;;13.27;4.28;;;23.70;87.10;;;;;;5085596;28;20032;-76
2022/06/28 02:10:37;;;;;;;18.33;5.22;;;23.60;87.30;;;;;;5091266;28;20097;-76
2022/06/28 02:13:03;;;;;;;19.42;3.30;;;23.60;87.70;;;;;;5087885;28;20066;-75
2022/06/28 02:15:29;;;;;;;12.40;3.95;;;23.40;88.10;;;;;;5090527;28;20081;-76
2022/06/28 02:17:58;;;;;;;15.55;3.35;;;23.50;87.80;;;;;;5089479;28;20035;-77
2022/06/28 02:20:24;;;;;;;18.98;4.18;;;23.60;87.30;;;;;;5089086;28;20550;-75
2022/06/28 02:22:50;;;;;;;15.38;3.47;;;23.50;87.40;;;;;;5081056;28;20063;-75
2022/06/28 02:25:17;;;;;;;15.60;3.58;;;23.40;87.70;;;;;;5087383;28;20139;-75
2022/06/28 02:27:43;;;;;;;19.80;3.75;;;23.30;87.90;;;;;;5088986;28;20107;-75
2022/06/28 02:30:10;;;;;;;18.75;3.72;;;23.30;87.80;;;;;;5089718;28;20525;-76
2022/06/28 02:32:37;;;;;;;20.95;3.80;;;23.40;87.70;;;;;;5086929;28;20390;-75
2022/06/28 02:40:32;;;;;;;18.35;4.07;;;23.70;86.80;;;;;;5086401;28;20038;-76
2022/06/28 02:43:00;;;;;;;20.20;4.43;;;23.60;87.20;;;;;;5088361;28;20119;-75
2022/06/28 02:45:28;;;;;;;20.42;3.40;;;23.40;87.50;;;;;;5088802;28;20024;-75
2022/06/28 02:47:54;;;;;;;13.32;3.15;;;23.30;87.80;;;;;;5089505;28;20040;-77
2022/06/28 02:50:20;;;;;;;12.00;3.55;;;23.10;88.90;;;;;;5088248;28;20036;-76
2022/06/28 02:52:45;;;;;;;14.32;3.90;;;23.10;89.80;;;;;;5087260;28;20367;-75
2022/06/28 02:55:12;;;;;;;20.25;4.32;;;23.10;88.80;;;;;;5089869;28;20466;-76
2022/06/28 02:57:38;;;;;;;17.98;3.97;;;23.10;88.90;;;;;;5087698;28;20082;-76
2022/06/28 03:00:10;;;;;;;16.40;3.80;;;23.00;89.00;;;;;;5087397;28;20375;-76
2022/06/28 03:02:37;;;;;;;17.27;4.10;;;22.90;88.70;;;;;;5087306;28;20039;-75
2022/06/28 03:05:08;;;;;;;12.98;3.55;;;23.00;88.40;;;;;;5086104;28;20028;-73
2022/06/28 03:07:34;;;;;;;18.27;4.03;;;23.10;88.40;;;;;;5082600;28;20025;-74
2022/06/28 03:10:00;;;;;;;14.13;3.97;;;23.10;88.40;;;;;;5085690;28;20036;-74
2022/06/28 03:12:25;;;;;;;17.95;4.05;;;23.00;88.50;;;;;;5083440;28;20032;-76
2022/06/28 03:14:51;;;;;;;16.42;3.70;;;23.00;88.60;;;;;;5086138;28;20025;-76
2022/06/28 03:17:17;;;;;;;19.13;3.65;;;23.20;88.50;;;;;;5083691;28;20059;-74
2022/06/28 03:19:43;;;;;;;15.52;4.43;;;23.20;88.50;;;;;;5085879;28;20067;-75
2022/06/28 03:22:08;;;;;;;21.13;4.55;;;23.20;88.30;;;;;;5082448;28;20040;-74
2022/06/28 03:24:34;;;;;;;15.57;4.72;;;23.10;88.60;;;;;;5088441;28;20032;-74
2022/06/28 03:27:00;;;;;;;14.30;4.07;;;23.00;89.00;;;;;;5088888;28;20036;-74
2022/06/28 03:29:25;;;;;;;23.35;4.43;;;23.00;88.90;;;;;;5088392;28;20038;-75
2022/06/28 03:31:51;;;;;;;22.33;5.20;;;22.90;89.00;;;;;;5087237;28;20036;-74
2022/06/28 03:34:17;;;;;;;15.80;4.50;;;22.90;89.30;;;;;;5083945;28;20111;-73
2022/06/28 03:36:43;;;;;;;15.65;3.92;;;22.80;89.40;;;;;;5088249;28;20111;-74
2022/06/28 03:39:08;;;;;;;16.02;4.20;;;22.90;89.50;;;;;;5090425;28;20073;-74
2022/06/28 03:41:34;;;;;;;22.25;5.32;;;22.80;89.60;;;;;;5087234;28;20051;-77
2022/06/28 03:44:00;;;;;;;13.57;3.47;;;23.00;89.40;;;;;;5087662;28;20114;-75
2022/06/28 03:46:25;;;;;;;18.77;4.65;;;23.10;89.30;;;;;;5087653;28;20068;-74
2022/06/28 03:48:51;;;;;;;18.95;3.65;;;23.10;89.40;;;;;;5088157;28;20089;-73
2022/06/28 03:51:17;;;;;;;15.52;4.50;;;23.00;89.40;;;;;;5082586;28;20059;-76
2022/06/28 03:53:43;;;;;;;22.85;4.32;;;23.00;89.20;;;;;;5088624;28;20028;-75
2022/06/28 03:56:10;;;;;;;14.40;3.67;;;23.10;89.00;;;;;;5087615;28;20149;-76
2022/06/28 03:58:36;;;;;;;16.42;4.40;;;23.10;88.90;;;;;;5087369;28;20034;-77
2022/06/28 04:01:02;;;;;;;13.00;3.08;;;23.20;89.00;;;;;;5084855;28;20040;-79
2022/06/28 04:03:28;;;;;;;16.67;3.47;;;23.30;88.90;;;;;;5082027;28;20070;-76
2022/06/28 04:05:54;;;;;;;14.52;4.10;;;23.40;88.60;;;;;;5084931;28;20048;-76
2022/06/28 04:08:19;;;;;;;16.90;4.10;;;23.50;88.70;;;;;;5083417;28;20032;-77
2022/06/28 04:10:45;;;;;;;17.88;4.53;;;23.30;90.00;;;;;;5084483;28;20497;-76
2022/06/28 04:13:11;;;;;;;19.63;4.70;;;23.40;88.90;;;;;;5086987;28;20102;-76
2022/06/28 04:15:37;;;;;;;17.00;4.22;;;23.30;88.70;;;;;;5084904;28;20111;-76
2022/06/28 04:18:04;;;;;;;16.67;4.18;;;23.20;89.00;;;;;;5085270;28;20038;-78
2022/06/28 04:20:31;;;;;;;25.02;4.85;;;23.20;89.10;;;;;;5084730;28;20501;-75
2022/06/28 04:22:56;;;;;;;17.92;3.78;;;23.40;89.20;;;;;;5084163;28;20078;-77
2022/06/28 04:25:22;;;;;;;17.63;4.88;;;23.60;89.70;;;;;;5081394;28;20059;-77
2022/06/28 04:27:48;;;;;;;16.25;4.45;;;23.70;89.20;;;;;;5082688;28;20625;-76
2022/06/28 04:30:14;;;;;;;16.48;4.03;;;23.50;89.10;;;;;;5086745;28;20134;-76
2022/06/28 04:32:40;;;;;;;18.05;4.57;;;23.30;90.00;;;;;;5083604;28;20024;-75
2022/06/28 04:35:06;;;;;;;18.73;4.50;;;23.50;90.00;;;;;;5085561;28;20028;-76
2022/06/28 04:37:32;;;;;;;14.70;3.80;;;23.60;89.40;;;;;;5083960;28;20032;-77
2022/06/28 04:39:58;;;;;;;16.23;4.00;;;23.50;89.50;;;;;;5083953;28;20046;-74
2022/06/28 04:42:23;;;;;;;16.08;3.72;;;23.50;89.70;;;;;;5079290;28;20050;-74
2022/06/28 04:44:49;;;;;;;10.77;4.15;;;23.40;90.10;;;;;;5084077;28;20035;-76
2022/06/28 04:47:14;;;;;;;16.80;3.75;;;23.40;89.90;;;;;;5083976;28;20032;-77
2022/06/28 04:49:40;;;;;;;20.75;3.97;;;23.40;90.00;;;;;;5084546;28;20032;-78
2022/06/28 04:52:06;;;;;;;18.48;4.35;;;23.50;90.10;;;;;;5083251;28;20649;-75
2022/06/28 04:54:32;;;;;;;21.00;5.15;;;23.40;90.30;;;;;;5083237;28;20110;-76
2022/06/28 04:56:58;;;;;;;16.30;4.13;;;23.60;90.30;;;;;;5084602;28;20478;-78
2022/06/28 04:59:23;;;;;;;14.73;4.22;;;23.50;90.40;;;;;;5083096;28;20070;-76
2022/06/28 05:01:49;;;;;;;14.38;4.88;;;23.60;90.30;;;;;;5082733;28;20628;-76
2022/06/28 05:04:14;;;;;;;23.02;4.70;;;23.50;90.50;;;;;;5082654;28;20043;-76
2022/06/28 05:06:40;;;;;;;10.80;3.50;;;23.50;90.70;;;;;;5081281;28;20404;-76
2022/06/28 05:09:06;;;;;;;17.23;4.18;;;23.40;90.80;;;;;;5083529;28;20028;-74
2022/06/28 05:11:32;;;;;;;16.85;4.13;;;23.50;90.80;;;;;;5082927;28;20028;-76
2022/06/28 05:13:59;;;;;;;14.38;4.53;;;23.50;91.10;;;;;;5085003;28;20077;-77
2022/06/28 05:16:24;;;;;;;16.20;3.88;;;23.50;91.10;;;;;;5081592;28;20036;-79
2022/06/28 05:18:50;;;;;;;17.83;3.63;;;23.40;91.00;;;;;;5080196;28;20040;-76
2022/06/28 05:21:16;;;;;;;18.88;4.32;;;23.30;91.40;;;;;;5082439;28;20072;-75
2022/06/28 05:23:42;;;;;;;20.15;3.75;;;23.10;91.90;;;;;;5082751;28;20031;-78
2022/06/28 05:26:08;;;;;;;22.50;5.05;;;23.30;91.80;;;;;;5082020;28;20042;-73
2022/06/28 05:28:33;;;;;;;16.35;4.45;;;23.40;92.20;;;;;;5088831;28;20047;-77
2022/06/28 05:30:59;;;;;;;15.32;3.67;;;23.40;92.20;;;;;;5084368;28;20124;-75
2022/06/28 05:33:25;;;;;;;16.55;4.20;;;23.30;92.00;;;;;;5078365;28;20024;-74
2022/06/28 05:35:50;;;;;;;17.50;3.63;;;23.40;91.80;;;;;;5086334;28;20514;-75
2022/06/28 05:38:16;;;;;;;15.65;4.80;;;23.40;91.40;;;;;;5080113;28;20847;-78
2022/06/28 05:40:42;;;;;;;16.75;3.97;;;23.60;91.40;;;;;;5084307;28;20063;-75
2022/06/28 05:43:08;;;;;;;13.40;4.47;;;23.70;90.70;;;;;;5085109;28;20082;-75
2022/06/28 05:45:33;;;;;;;18.45;4.32;;;23.90;90.50;;;;;;5084936;28;20042;-75
2022/06/28 05:47:59;;;;;;;17.95;3.60;;;24.00;90.30;;;;;;5084019;28;20044;-76
2022/06/28 05:50:25;;;;;;;15.95;4.95;;;24.10;90.60;;;;;;5082175;28;20035;-75
2022/06/28 05:52:52;;;;;;;18.25;4.70;;;24.10;90.50;;;;;;5084541;28;20035;-76
2022/06/28 05:55:17;;;;;;;15.45;4.88;;;24.10;90.60;;;;;;5079338;28;20041;-75
2022/06/28 05:57:43;;;;;;;15.45;4.65;;;24.10;90.70;;;;;;5083285;28;20044;-74
2022/06/28 06:00:10;;;;;;;14.85;3.80;;;24.10;90.80;;;;;;5082518;28;20024;-75
2022/06/28 06:02:36;;;;;;;22.42;4.45;;;24.10;90.70;;;;;;5077669;28;20043;-75
2022/06/28 06:05:02;;;;;;;21.58;4.43;;;24.10;90.60;;;;;;5083320;28;20040;-75
2022/06/28 06:07:29;;;;;;;19.25;4.40;;;24.20;90.40;;;;;;5076311;28;20020;-75
2022/06/28 06:09:56;;;;;;;14.43;4.40;;;24.20;90.60;;;;;;5083718;28;20036;-73
2022/06/28 06:12:21;;;;;;;19.65;4.57;;;24.30;90.40;;;;;;5084084;28;20036;-75
2022/06/28 06:14:47;;;;;;;17.98;4.90;;;24.40;90.90;;;;;;5083319;28;20476;-75
2022/06/28 06:17:13;;;;;;;17.10;4.03;;;24.40;90.70;;;;;;5084308;28;20406;-75
2022/06/28 06:19:38;;;;;;;16.70;4.40;;;24.50;91.10;;;;;;5083444;28;20032;-75
2022/06/28 06:22:04;;;;;;;17.80;4.72;;;24.60;91.00;;;;;;5082373;28;20051;-75
2022/06/28 06:24:30;;;;;;;17.25;4.35;;;24.50;91.00;;;;;;5078074;28;20052;-75
2022/06/28 06:26:55;;;;;;;12.55;3.65;;;24.60;91.20;;;;;;5082353;28;20039;-75
2022/06/28 06:29:21;;;;;;;16.55;4.65;;;24.50;91.30;;;;;;5083987;28;20118;-75
2022/06/28 06:31:47;;;;;;;19.85;4.20;;;24.50;91.30;;;;;;5082145;28;20032;-76
2022/06/28 06:34:14;;;;;;;15.95;4.35;;;24.60;91.20;;;;;;5084053;28;20466;-76
2022/06/28 06:36:40;;;;;;;14.43;4.60;;;24.60;91.50;;;;;;5082266;28;20062;-75
2022/06/28 06:39:07;;;;;;;15.40;4.50;;;24.60;91.50;;;;;;5082983;28;20059;-76
2022/06/28 06:41:33;;;;;;;18.80;4.28;;;24.60;91.00;;;;;;5082037;28;20036;-75
2022/06/28 06:43:59;;;;;;;16.08;5.00;;;24.70;91.00;;;;;;5083729;28;20061;-75
2022/06/28 06:46:25;;;;;;;21.17;4.68;;;24.90;91.10;;;;;;5083471;28;20028;-76
2022/06/28 06:48:51;;;;;;;10.77;4.22;;;25.10;91.50;;;;;;5081889;28;20043;-75
2022/06/28 06:51:17;;;;;;;15.85;4.80;;;25.40;91.30;;;;;;5086056;28;20032;-78
2022/06/28 06:53:43;;;;;;;21.13;4.72;;;25.60;90.50;;;;;;5088159;28;20032;-75
2022/06/28 06:56:09;;;;;;;13.43;3.60;;;25.90;90.50;;;;;;5087040;28;20572;-73
2022/06/28 06:58:35;;;;;;;19.73;4.68;;;26.10;90.60;;;;;;5087261;28;20028;-75
2022/06/28 07:01:00;;;;;;;36.55;5.60;;;26.10;90.00;;;;;;5085199;28;20036;-75
2022/06/28 07:03:26;;;;;;;13.05;3.90;;;26.00;91.00;;;;;;5087364;28;20036;-77
2022/06/28 07:05:52;;;;;;;26.42;5.82;;;25.90;91.00;;;;;;5087958;28;20120;-75
2022/06/28 07:08:18;;;;;;;28.00;5.35;;;26.00;91.10;;;;;;5087309;28;20028;-76
2022/06/28 07:10:44;;;;;;;18.13;4.50;;;26.10;90.70;;;;;;5087719;28;20180;-75
2022/06/28 07:13:10;;;;;;;20.77;4.47;;;26.20;90.70;;;;;;5085762;28;20111;-75
2022/06/28 07:15:35;;;;;;;15.38;4.63;;;26.40;91.20;;;;;;5085858;28;20058;-74
2022/06/28 07:18:02;;;;;;;20.20;4.10;;;26.50;90.50;;;;;;5086701;28;20040;-74
2022/06/28 07:20:28;;;;;;;17.40;4.13;;;26.70;90.00;;;;;;5087824;28;20036;-75
2022/06/28 07:22:54;;;;;;;16.58;4.63;;;27.00;90.10;;;;;;5087040;28;20485;-75
2022/06/28 07:25:20;;;;;;;13.85;4.53;;;27.30;90.30;;;;;;5084843;28;20047;-75
2022/06/28 07:27:45;;;;;;;15.85;4.35;;;27.60;90.10;;;;;;5086584;28;20032;-75
2022/06/28 07:30:12;;;;;;;18.30;5.78;;;27.50;90.30;;;;;;5085362;28;20603;-76
2022/06/28 07:32:37;;;;;;;17.55;4.38;;;27.30;90.40;;;;;;5081206;28;20124;-74
2022/06/28 07:35:04;;;;;;;14.18;4.95;;;27.10;90.30;;;;;;5086834;28;20099;-74
2022/06/28 07:37:29;;;;;;;19.80;4.80;;;27.00;90.40;;;;;;5086652;28;20043;-76
2022/06/28 07:39:55;;;;;;;17.80;4.88;;;26.90;89.40;;;;;;5084187;28;20028;-75
2022/06/28 07:42:21;;;;;;;20.75;5.05;;;26.90;89.40;;;;;;5086426;28;20040;-75
2022/06/28 07:44:46;;;;;;;26.98;5.05;;;27.00;89.10;;;;;;5085696;28;20038;-75
2022/06/28 07:47:12;;;;;;;19.20;5.28;;;27.00;90.10;;;;;;5086260;28;20459;-74
2022/06/28 07:52:42;;;;;;;15.23;4.80;;;26.90;90.50;;;;;;5085187;28;20047;-74
2022/06/28 07:55:09;;;;;;;19.13;5.07;;;26.70;90.80;;;;;;5082140;28;20067;-74
2022/06/28 07:57:36;;;;;;;16.30;5.05;;;26.50;91.00;;;;;;5086168;28;20028;-76
2022/06/28 08:00:04;;;;;;;24.63;5.57;;;26.70;91.20;;;;;;5084987;28;20024;-74
2022/06/28 08:02:29;;;;;;;21.33;5.15;;;26.80;91.60;;;;;;5086035;28;20043;-75
2022/06/28 08:04:55;;;;;;;20.10;4.72;;;26.70;91.80;;;;;;5083557;28;20028;-74
2022/06/28 08:07:21;;;;;;;13.70;4.32;;;26.60;91.60;;;;;;5086040;28;20043;-74
2022/06/28 08:09:47;;;;;;;17.08;6.15;;;26.50;91.10;;;;;;5085378;28;20027;-74
2022/06/28 08:12:13;;;;;;;16.33;4.80;;;26.50;91.20;;;;;;5086255;28;20046;-71
2022/06/28 08:14:39;;;;;;;13.13;4.28;;;26.70;91.00;;;;;;5086724;28;20819;-73
2022/06/28 08:17:05;;;;;;;15.38;4.93;;;27.00;91.10;;;;;;5087176;28;20028;-72
2022/06/28 08:19:31;;;;;;;14.85;5.13;;;26.90;91.00;;;;;;5086871;28;20044;-73
2022/06/28 08:21:57;;;;;;;15.60;5.07;;;27.00;91.00;;;;;;5085158;28;20382;-73
2022/06/28 08:24:22;;;;;;;19.38;5.18;;;27.20;90.90;;;;;;5085524;28;20081;-72
2022/06/28 08:26:48;;;;;;;20.70;5.38;;;27.50;90.80;;;;;;5086088;28;20039;-72
2022/06/28 08:29:16;;;;;;;18.70;4.35;;;27.70;90.60;;;;;;5086790;28;20028;-71
2022/06/28 08:31:42;;;;;;;16.42;4.90;;;27.80;91.20;;;;;;5086245;28;20115;-72
2022/06/28 08:34:09;;;;;;;14.65;4.32;;;27.60;91.10;;;;;;5080620;28;20033;-72
2022/06/28 08:36:34;;;;;;;20.27;4.88;;;27.40;90.90;;;;;;5084044;28;20377;-72
2022/06/28 08:39:00;;;;;;;13.57;4.55;;;27.30;90.00;;;;;;5083743;28;20044;-72
2022/06/28 08:41:28;;;;;;;18.98;5.15;;;27.40;91.10;;;;;;5086185;28;20036;-72
2022/06/28 08:43:55;;;;;;;18.17;5.88;;;27.50;91.30;;;;;;5086671;28;20466;-73
2022/06/28 08:46:21;;;;;;;17.58;5.35;;;27.60;90.70;;;;;;5086169;28;20044;-74
2022/06/28 08:48:53;;;;;;;16.95;4.88;;;27.60;90.90;;;;;;5086290;28;20040;-72
2022/06/28 08:51:19;;;;;;;17.55;4.95;;;27.50;91.30;;;;;;5086215;28;20028;-72
2022/06/28 08:53:48;;;;;;;15.90;5.63;;;27.30;91.30;;;;;;5084850;28;20048;-71
2022/06/28 08:56:15;;;;;;;12.35;4.57;;;27.10;91.50;;;;;;5076771;28;20422;-72
2022/06/28 08:58:42;;;;;;;14.30;5.20;;;27.10;91.60;;;;;;5086101;28;20043;-72
2022/06/28 09:01:10;;;;;;;11.02;4.60;;;27.10;91.80;;;;;;5085345;28;20064;-72
2022/06/28 09:03:37;;;;;;;18.50;5.10;;;27.20;91.80;;;;;;5085632;28;20140;-72
2022/06/28 09:06:03;;;;;;;14.32;5.28;;;27.40;91.70;;;;;;5085617;28;20042;-72
2022/06/28 09:08:29;;;;;;;18.98;5.93;;;27.70;91.80;;;;;;5086037;28;20035;-72
2022/06/28 09:10:55;;;;;;;14.98;5.28;;;27.90;91.90;;;;;;5086718;28;20028;-72
2022/06/28 09:13:21;;;;;;;14.48;4.70;;;28.00;91.80;;;;;;5079605;28;20121;-72
2022/06/28 09:15:57;;;;;;;14.73;4.95;;;28.30;91.60;;;;;;5085873;28;20146;-73
2022/06/28 09:18:43;;;;;;;17.00;4.70;;;28.70;91.80;;;;;;5085567;28;20039;-72
2022/06/28 09:21:14;;;;;;;21.27;4.93;;;29.00;91.30;;;;;;5084965;28;20046;-72
2022/06/28 09:23:43;;;;;;;14.13;5.20;;;28.80;90.70;;;;;;5084346;28;20036;-72
2022/06/28 09:26:19;;;;;;;17.52;5.40;;;28.80;90.90;;;;;;5084660;28;20040;-72
2022/06/28 09:28:50;;;;;;;17.23;4.82;;;29.00;91.00;;;;;;5083855;28;20116;-72
2022/06/28 09:31:19;;;;;;;17.00;5.43;;;29.30;90.70;;;;;;5081812;28;20481;-72
2022/06/28 09:33:47;;;;;;;19.15;5.68;;;29.50;90.90;;;;;;5085293;28;20039;-72
2022/06/28 09:36:15;;;;;;;13.00;4.82;;;29.40;90.60;;;;;;5085603;28;20028;-72
2022/06/28 09:38:41;;;;;;;22.13;5.57;;;29.20;90.30;;;;;;5085046;28;20607;-72
2022/06/28 09:41:27;;;;;;;17.98;4.32;;;29.20;90.50;;;;;;5084874;28;20081;-72
2022/06/28 09:43:55;;;;;;;21.10;5.20;;;29.50;90.50;;;;;;5085123;28;20395;-72
2022/06/28 09:46:23;;;;;;;15.10;4.82;;;29.80;90.30;;;;;;5083370;28;20043;-72
2022/06/28 09:48:49;;;;;;;20.55;5.53;;;30.00;90.40;;;;;;5085218;28;20410;-73
2022/06/28 09:51:22;;;;;;;14.32;5.72;;;30.20;90.30;;;;;;5084947;28;20043;-72
2022/06/28 09:53:58;;;;;;;18.52;4.82;;;30.10;89.70;;;;;;5081590;28;20398;-73
2022/06/28 09:56:26;;;;;;;14.23;4.85;;;30.40;89.10;;;;;;5083346;28;20661;-73
2022/06/28 09:58:52;;;;;;;15.93;5.05;;;30.10;89.50;;;;;;5082978;28;20107;-72
2022/06/28 10:01:19;;;;;;;13.85;4.07;;;30.10;88.20;;;;;;5084508;28;20028;-73
2022/06/28 10:03:46;;;;;;;15.85;5.65;;;30.30;87.80;;;;;;5081906;28;20114;-72
2022/06/28 10:06:12;;;;;;;22.27;5.28;;;30.30;88.10;;;;;;5085348;28;20039;-72
2022/06/28 10:08:40;;;;;;;20.13;5.45;;;30.40;88.60;;;;;;5085377;28;20032;-72
2022/06/28 10:11:06;;;;;;;21.80;5.18;;;30.50;88.50;;;;;;5084655;28;20406;-72
2022/06/28 10:16:49;;;;;;;13.80;4.63;;;30.40;88.30;;;;;;5084832;28;20047;-72
2022/06/28 10:19:20;;;;;;;16.75;6.07;;;30.60;87.40;;;;;;5085117;28;20066;-72
2022/06/28 10:22:07;;;;;;;15.35;4.68;;;30.60;87.30;;;;;;5076422;28;20097;-73
2022/06/28 10:25:18;;;;;;;21.95;4.97;;;30.50;88.70;;;;;;5083001;28;20035;-73
2022/06/28 10:27:49;;;;;;;15.73;6.38;;;30.40;87.40;;;;;;5061007;28;20124;-72
2022/06/28 10:30:14;;;;;;;25.55;6.47;;;30.50;88.40;;;;;;5082048;28;20040;-73
2022/06/28 10:32:51;;;;;;;13.80;5.28;;;30.60;88.00;;;;;;5083263;28;20429;-72
2022/06/28 10:35:47;;;;;;;19.35;5.18;;;30.40;87.50;;;;;;5084617;28;20024;-72
2022/06/28 10:38:12;;;;;;;18.10;4.78;;;30.40;87.30;;;;;;5069867;28;20119;-72
2022/06/28 10:40:50;;;;;;;19.42;5.22;;;30.20;87.80;;;;;;5084679;28;20135;-72
2022/06/28 10:43:27;;;;;;;23.17;5.70;;;30.30;88.60;;;;;;5084444;28;20040;-72
2022/06/28 10:46:09;;;;;;;13.00;5.85;;;30.50;87.50;;;;;;5085126;28;20028;-72
2022/06/28 10:48:50;;;;;;;15.23;5.88;;;30.80;87.90;;;;;;5084763;28;20036;-72
2022/06/28 10:51:17;;;;;;;20.85;5.40;;;30.70;87.70;;;;;;5084248;28;20074;-72
2022/06/28 10:53:55;;;;;;;19.73;4.78;;;30.70;88.00;;;;;;5082601;28;20035;-73
2022/06/28 10:56:21;;;;;;;19.08;5.32;;;31.20;88.30;;;;;;5080149;28;20039;-72
2022/06/28 10:59:02;;;;;;;17.20;4.97;;;31.70;85.80;;;;;;5084194;28;20069;-73
2022/06/28 11:01:43;;;;;;;17.92;5.20;;;31.60;84.80;;;;;;5083812;28;20044;-73
2022/06/28 11:04:27;;;;;;;24.15;5.18;;;32.00;86.00;;;;;;5084512;28;20024;-73
2022/06/28 11:06:55;;;;;;;;;;;32.00;85.40;;;;;;5084788;28;20428;-73
2022/06/28 11:10:03;;;;;;;17.52;4.68;;;31.90;84.30;;;;;;5083642;28;19912;-73
2022/06/28 11:12:34;;;;;;;19.88;4.70;;;32.00;85.20;;;;;;5072661;28;20127;-73
2022/06/28 11:15:08;;;;;;;17.45;5.63;;;32.00;85.50;;;;;;5083813;28;20531;-73
2022/06/28 11:17:38;;;;;;;16.55;5.85;;;31.80;85.20;;;;;;5084243;28;20119;-74
2022/06/28 11:20:07;;;;;;;18.48;4.65;;;31.30;85.40;;;;;;5083771;28;20117;-74
2022/06/28 11:22:49;;;;;;;19.55;4.95;;;31.40;85.20;;;;;;5083965;28;20516;-73
2022/06/28 11:25:18;;;;;;;18.17;5.32;;;31.10;85.70;;;;;;5083478;28;20161;-73
2022/06/28 11:27:56;;;;;;;21.33;4.90;;;30.90;85.60;;;;;;5084230;28;20040;-73
2022/06/28 11:30:26;;;;;;;14.48;5.72;;;30.90;84.70;;;;;;5083039;28;20144;-73
2022/06/28 11:32:55;;;;;;;17.60;4.82;;;30.90;85.70;;;;;;5086791;28;20024;-73
2022/06/28 11:35:20;;;;;;;23.83;6.18;;;31.00;85.30;;;;;;5080900;28;20082;-73
2022/06/28 11:37:58;;;;;;;19.60;5.15;;;30.90;88.00;;;;;;5090661;28;20428;-73
2022/06/28 11:40:26;;;;;;;26.05;6.40;;;31.00;88.10;;;;;;5090383;28;20032;-73
2022/06/28 11:43:12;;;;;;;22.45;4.95;;;31.10;87.10;;;;;;5090253;28;20047;-73
2022/06/28 11:45:47;;;;;;;20.13;4.85;;;31.00;86.50;;;;;;5085548;28;20024;-73
2022/06/28 11:48:14;;;;;;;20.85;4.88;;;31.00;87.20;;;;;;5088854;28;20083;-73
2022/06/28 11:51:05;;;;;;;18.60;4.82;;;31.00;88.40;;;;;;5090398;28;20518;-73
2022/06/28 11:53:42;;;;;;;20.38;4.63;;;30.80;87.60;;;;;;5089015;28;20111;-74
2022/06/28 11:56:08;;;;;;;22.05;5.13;;;30.60;87.10;;;;;;5089167;28;20032;-73
2022/06/28 11:58:38;;;;;;;22.17;6.50;;;30.70;86.70;;;;;;5090589;28;20455;-73
2022/06/28 12:01:18;;;;;;;21.35;4.47;;;30.80;87.60;;;;;;5090293;28;20039;-73
2022/06/28 12:03:43;;;;;;;18.77;4.43;;;31.00;83.20;;;;;;5084222;28;20048;-74
2022/06/28 12:06:24;;;;;;;18.08;4.38;;;31.20;81.90;;;;;;5090082;28;20631;-73
2022/06/28 12:08:59;;;;;;;19.20;4.45;;;31.40;81.60;;;;;;5090407;28;20503;-74
2022/06/28 12:11:24;;;;;;;18.67;5.53;;;31.40;83.00;;;;;;5089968;28;20044;-73
2022/06/28 12:14:14;;;;;;;21.77;4.70;;;31.20;82.40;;;;;;5089913;28;20085;-74
2022/06/28 12:17:01;;;;;;;21.35;4.20;;;31.40;81.80;;;;;;5089519;28;20059;-73
2022/06/28 12:19:34;;;;;;;19.95;5.20;;;31.40;83.20;;;;;;5086932;28;20058;-74
2022/06/28 12:22:04;;;;;;;19.48;4.43;;;31.40;81.60;;;;;;5089796;28;20044;-74
2022/06/28 12:24:56;;;;;;;13.75;3.72;;;31.40;82.00;;;;;;5087784;28;20027;-73
2022/06/28 12:27:27;;;;;;;20.92;5.45;;;31.30;84.70;;;;;;5088961;28;20163;-73
2022/06/28 12:29:54;;;;;;;19.70;5.38;;;31.20;88.80;;;;;;5089410;28;20051;-73
2022/06/28 12:32:20;;;;;;;25.35;5.32;;;30.80;88.80;;;;;;5089502;28;20036;-73
2022/06/28 12:34:46;;;;;;;15.32;4.65;;;30.60;87.80;;;;;;5089022;28;20047;-73
2022/06/28 12:37:12;;;;;;;18.23;5.45;;;30.60;87.70;;;;;;5088614;28;20518;-73
2022/06/28 12:39:38;;;;;;;18.88;5.32;;;30.60;87.80;;;;;;5089480;28;20028;-73
2022/06/28 12:42:05;;;;;;;14.98;4.90;;;30.60;85.80;;;;;;5089436;28;20059;-73
2022/06/28 12:44:32;;;;;;;24.60;5.78;;;30.60;85.60;;;;;;5089466;28;20093;-73
2022/06/28 12:46:58;;;;;;;19.10;4.00;;;30.60;83.30;;;;;;5089091;28;20355;-73
2022/06/28 12:49:24;;;;;;;22.65;5.32;;;30.40;81.60;;;;;;5088963;28;20031;-73
2022/06/28 12:51:51;;;;;;;19.10;3.70;;;30.40;81.00;;;;;;5086208;28;20466;-73
2022/06/28 12:54:17;;;;;;;21.17;3.72;;;30.30;82.00;;;;;;5085898;28;20044;-73
2022/06/28 12:56:43;;;;;;;31.02;5.00;;;30.10;84.20;;;;;;5088342;28;20055;-73